Main page
METAR-TAF:

METAR-TAF

Airports :

Pskov Airport

Pskov, Russia

latitude: 57-47-06N, longitude: 028-23-54E, elevation: 47 m

Current weather observation

The report was made 19 minutes ago, at 03:30 UTC
Calm wind
Temperature 15°C
Humidity 100%
Pressure 1019 hPa
Visibility: 9000 m

METAR: ULOO 150330Z 00000MPS 9000 NSC 15/15 Q1019 R19/090060 NOSIG RMK QFE760

Time: 06:49 (03:49 UTC)

Forecast

The report was made 1 hour and 57 minutes ago, at 01:52 UTC
Forecast valid from 15 at 03 UTC to 15 at 12 UTC
Wind 6 kt from the East
Visibility 10 km or more
no clouds below 1500 m and no cumulonimbus

TAF: ULOO 150152Z 1503/1512 09003MPS CAVOK

Weather observations and forecasts of more than 4000 airports (METAR and TAF reports).

The available stations are represented by yellow and red dots on the map.

Hover mouse over dot to see the name of the station.

Then click to see weather observations and forecasts.

To change the map : click on the green buttons with a black cross to zoom in, on the green button with a dash to zoom out, or on the green arrows for adjacent maps.


METAR-TAF: